createdAt,value
2023-06-30T00:00:02.014Z,984.914
2023-06-30T00:01:01.504Z,984.8556
2023-06-30T00:02:03.604Z,985.0893
2023-06-30T00:03:01.553Z,984.8917
2023-06-30T00:04:02.038Z,984.914
2023-06-30T00:05:01.314Z,984.8917
2023-06-30T00:06:01.795Z,984.8418
2023-06-30T00:07:02.305Z,984.8345
2023-06-30T00:08:03.325Z,984.9965
2023-06-30T00:09:02.162Z,984.8057
2023-06-30T00:10:03.207Z,984.8053
2023-06-30T00:11:02.050Z,984.8848
2023-06-30T00:12:03.113Z,984.7195
2023-06-30T00:13:03.556Z,984.899
2023-06-30T00:14:03.007Z,984.8556
2023-06-30T00:15:03.441Z,984.804
2023-06-30T00:16:02.309Z,984.957
2023-06-30T00:17:01.709Z,984.7624
2023-06-30T00:18:02.194Z,984.8461
2023-06-30T00:19:03.273Z,984.963
2023-06-30T00:20:02.089Z,984.8169
2023-06-30T00:21:03.154Z,984.7401
2023-06-30T00:22:03.613Z,984.8461
2023-06-30T00:23:03.064Z,984.8169
2023-06-30T00:24:03.510Z,984.7624
2023-06-30T00:25:01.326Z,984.661
2023-06-30T00:26:01.770Z,984.5816
2023-06-30T00:27:02.234Z,984.835
2023-06-30T00:28:03.312Z,984.8655
2023-06-30T00:29:03.789Z,984.6792
2023-06-30T00:30:01.621Z,984.786
2023-06-30T00:31:02.087Z,984.8655
2023-06-30T00:32:03.155Z,984.7933
2023-06-30T00:33:01.953Z,984.7933
2023-06-30T00:34:03.056Z,984.6792
2023-06-30T00:35:01.897Z,984.7157
2023-06-30T00:36:02.948Z,984.7002
2023-06-30T00:37:01.788Z,984.6267
2023-06-30T00:38:02.303Z,984.7212
2023-06-30T00:39:01.728Z,984.7277
2023-06-30T00:40:03.876Z,984.6405
2023-06-30T00:41:03.288Z,984.7504
2023-06-30T00:42:03.652Z,984.6989
2023-06-30T00:43:03.148Z,984.7058
2023-06-30T00:44:01.968Z,984.6044
2023-06-30T00:45:01.524Z,984.5971
2023-06-30T00:46:01.884Z,984.6984
2023-06-30T00:47:01.409Z,984.582
2023-06-30T00:48:03.511Z,984.5524
2023-06-30T00:49:02.242Z,984.7761
2023-06-30T00:50:01.693Z,984.6984
2023-06-30T00:51:03.773Z,984.7071
2023-06-30T00:52:01.607Z,984.6779
2023-06-30T00:53:03.690Z,984.6267
2023-06-30T00:54:01.546Z,984.6418
2023-06-30T00:55:03.639Z,984.7672
2023-06-30T00:56:01.432Z,984.6951
2023-06-30T00:57:01.925Z,984.607
2023-06-30T00:58:01.353Z,984.6951
2023-06-30T00:59:01.816Z,984.5491
2023-06-30T01:00:01.252Z,984.4902
2023-06-30T01:01:03.370Z,984.607
2023-06-30T01:02:02.301Z,984.5263
2023-06-30T01:03:01.692Z,984.5263
2023-06-30T01:04:02.200Z,984.5783
2023-06-30T01:05:01.536Z,984.5194
2023-06-30T01:06:01.990Z,984.6517
2023-06-30T01:07:03.202Z,984.7239
2023-06-30T01:08:01.892Z,984.3738
2023-06-30T01:09:01.344Z,984.4833
2023-06-30T01:10:03.465Z,984.4614
2023-06-30T01:11:02.915Z,984.3738
2023-06-30T01:12:01.721Z,984.5783
2023-06-30T01:13:02.180Z,984.4988
2023-06-30T01:14:03.265Z,984.5435
2023-06-30T01:15:03.717Z,984.5298
2023-06-30T01:16:03.161Z,984.5723
2023-06-30T01:17:01.989Z,984.5727
2023-06-30T01:18:01.569Z,984.4555
2023-06-30T01:19:01.891Z,984.5002
2023-06-30T01:20:01.386Z,984.4267
2023-06-30T01:21:01.812Z,984.4112
2023-06-30T01:22:01.297Z,984.4404
2023-06-30T01:23:03.317Z,984.4267
2023-06-30T01:24:03.878Z,984.5002
2023-06-30T01:25:03.270Z,984.4112
2023-06-30T01:26:02.124Z,984.3309
2023-06-30T01:27:03.218Z,984.3017
2023-06-30T01:28:03.601Z,984.2957
2023-06-30T01:29:03.063Z,984.267
2023-06-30T01:30:03.514Z,984.428
2023-06-30T01:31:02.951Z,984.428
2023-06-30T01:32:01.727Z,984.428
2023-06-30T01:33:02.237Z,984.1812
2023-06-30T01:34:03.276Z,984.3199
2023-06-30T01:35:02.079Z,984.2551
2023-06-30T01:36:01.550Z,984.3285
2023-06-30T01:37:02.019Z,984.2752
2023-06-30T01:38:01.472Z,984.3272
2023-06-30T01:39:03.534Z,984.3354
2023-06-30T01:40:01.346Z,984.277
2023-06-30T01:41:03.436Z,984.1762
2023-06-30T01:42:03.865Z,984.2054
2023-06-30T01:43:03.334Z,984.2578
2023-06-30T01:44:03.771Z,984.2373
2023-06-30T01:45:03.226Z,984.1415
2023-06-30T01:46:02.134Z,984.2583
2023-06-30T01:47:01.465Z,984.2441
2023-06-30T01:48:02.095Z,984.2938
2023-06-30T01:49:01.446Z,984.1994
2023-06-30T01:50:03.528Z,984.2665
2023-06-30T01:51:01.348Z,984.1789
2023-06-30T01:52:01.824Z,984.2874
2023-06-30T01:53:03.919Z,984.1702
2023-06-30T01:54:01.694Z,984.1342
2023-06-30T01:55:03.758Z,984.2373
2023-06-30T01:56:03.207Z,984.1789
2023-06-30T01:57:03.628Z,984.1064
2023-06-30T01:58:03.152Z,984.1802
2023-06-30T01:59:03.561Z,984.2176
2023-06-30T02:00:01.344Z,984.0717
2023-06-30T02:01:03.440Z,984.2386
2023-06-30T02:02:02.325Z,984.1647
2023-06-30T02:03:01.724Z,984.2815
2023-06-30T02:04:03.877Z,984.1953
2023-06-30T02:05:03.208Z,984.2176
2023-06-30T02:06:03.685Z,984.1661
2023-06-30T02:07:01.481Z,984.1369
2023-06-30T02:08:03.561Z,984.1593
2023-06-30T02:09:01.388Z,984.058
2023-06-30T02:10:01.944Z,984.1593
2023-06-30T02:11:02.270Z,984.0872
2023-06-30T02:12:01.766Z,984.0804
2023-06-30T02:13:02.164Z,983.965
2023-06-30T02:14:03.269Z,984.1401
2023-06-30T02:15:02.082Z,984.1246
2023-06-30T02:16:01.584Z,984.0444
2023-06-30T02:17:03.570Z,984.1164
2023-06-30T02:18:03.077Z,984.1246
2023-06-30T02:19:03.508Z,984.0371
2023-06-30T02:20:01.418Z,984.2126
2023-06-30T02:21:03.465Z,984.25
2023-06-30T02:22:02.252Z,984.214
2023-06-30T02:23:03.371Z,984.2947
2023-06-30T02:24:02.190Z,984.193
2023-06-30T02:25:03.286Z,984.2513
2023-06-30T02:26:02.099Z,984.26
2023-06-30T02:27:01.544Z,984.3047
2023-06-30T02:28:01.994Z,984.4592
2023-06-30T02:29:01.447Z,984.4231
2023-06-30T02:30:03.572Z,984.3885
2023-06-30T02:31:03.020Z,984.4194
2023-06-30T02:32:03.437Z,984.3556
2023-06-30T02:33:02.267Z,984.489
2023-06-30T02:34:01.729Z,984.556
2023-06-30T02:35:03.902Z,984.5144
2023-06-30T02:36:03.274Z,984.595
2023-06-30T02:37:03.689Z,984.3992
2023-06-30T02:38:01.511Z,984.5158
2023-06-30T02:39:01.994Z,984.3992
2023-06-30T02:40:03.052Z,984.4257
2023-06-30T02:41:01.903Z,984.3965
2023-06-30T02:42:01.370Z,984.2781
2023-06-30T02:43:03.443Z,984.3351
2023-06-30T02:44:02.232Z,984.1948
2023-06-30T02:45:03.317Z,984.2804
2023-06-30T02:46:03.837Z,984.3151
2023-06-30T02:47:01.545Z,984.1314
2023-06-30T02:48:02.034Z,984.2978
2023-06-30T02:49:03.142Z,984.2531
2023-06-30T02:50:01.946Z,984.26
2023-06-30T02:51:03.023Z,984.3767
2023-06-30T02:52:01.849Z,984.3252
2023-06-30T02:53:02.925Z,984.3767
2023-06-30T02:54:01.755Z,984.3681
2023-06-30T02:55:02.225Z,984.2805
2023-06-30T02:56:01.649Z,984.2805
2023-06-30T02:57:02.092Z,984.1793
2023-06-30T02:58:03.227Z,984.3753
2023-06-30T02:59:01.993Z,984.2359
2023-06-30T03:00:01.445Z,984.2513
2023-06-30T03:01:02.661Z,984.2513
2023-06-30T03:02:03.125Z,984.1346
2023-06-30T03:03:01.893Z,984.1638
2023-06-30T03:04:04.063Z,984.2586
2023-06-30T03:05:01.709Z,984.2513
2023-06-30T03:06:03.785Z,984.1264
2023-06-30T03:07:01.654Z,984.1401
2023-06-30T03:08:03.694Z,984.3083
2023-06-30T03:09:03.186Z,984.1501
2023-06-30T03:10:01.922Z,984.188
2023-06-30T03:11:03.114Z,984.2189
2023-06-30T03:12:01.799Z,984.4231
2023-06-30T03:13:03.912Z,984.3164
2023-06-30T03:14:03.326Z,984.3388
2023-06-30T03:15:02.166Z,984.1638
2023-06-30T03:16:01.581Z,984.2718
2023-06-30T03:17:03.853Z,984.3151
2023-06-30T03:18:03.295Z,984.3151
2023-06-30T03:19:03.554Z,984.2718
2023-06-30T03:20:03.162Z,984.3151
2023-06-30T03:21:01.823Z,984.4249
2023-06-30T03:22:02.937Z,984.2718
2023-06-30T03:23:01.741Z,984.3151
2023-06-30T03:24:02.170Z,984.4231
2023-06-30T03:25:01.615Z,984.2481
2023-06-30T03:26:03.712Z,984.4231
2023-06-30T03:27:01.528Z,984.4231
2023-06-30T03:28:01.972Z,984.1606
2023-06-30T03:29:01.446Z,984.4231
2023-06-30T03:30:01.887Z,984.2718
2023-06-30T03:31:01.354Z,984.4231
2023-06-30T03:32:01.750Z,984.4468
2023-06-30T03:33:03.957Z,984.3456
2023-06-30T03:34:01.662Z,984.3903
2023-06-30T03:35:03.790Z,984.3903
2023-06-30T03:36:03.281Z,984.2458
2023-06-30T03:37:02.042Z,984.4504
2023-06-30T03:38:01.505Z,984.4504
2023-06-30T03:39:03.607Z,984.4431
2023-06-30T03:40:01.405Z,984.3556
2023-06-30T03:41:03.505Z,984.3264
2023-06-30T03:42:01.258Z,984.2904
2023-06-30T03:43:01.717Z,984.3337
2023-06-30T03:44:02.188Z,984.3542
2023-06-30T03:45:03.279Z,984.5584
2023-06-30T03:46:02.129Z,984.3611
2023-06-30T03:47:03.224Z,984.3611
2023-06-30T03:48:03.762Z,984.3388
2023-06-30T03:49:01.441Z,984.5343
2023-06-30T03:50:03.522Z,984.3885
2023-06-30T03:51:02.950Z,984.5484
2023-06-30T03:52:03.424Z,984.3151
2023-06-30T03:53:02.263Z,984.4609
2023-06-30T03:54:03.333Z,984.3529
2023-06-30T03:55:03.789Z,984.3529
2023-06-30T03:56:03.320Z,984.4108
2023-06-30T03:57:02.044Z,984.5051
2023-06-30T03:58:01.493Z,984.3301
2023-06-30T03:59:03.614Z,984.3525
2023-06-30T04:00:03.059Z,984.5484
2023-06-30T04:01:03.521Z,984.5106
2023-06-30T04:02:02.273Z,984.4231
2023-06-30T04:03:01.896Z,984.4231
2023-06-30T04:04:04.154Z,984.5239
2023-06-30T04:05:01.779Z,984.5239
2023-06-30T04:06:02.076Z,984.399
2023-06-30T04:07:01.709Z,984.3115
2023-06-30T04:08:02.124Z,984.188
2023-06-30T04:09:01.463Z,984.188
2023-06-30T04:10:01.977Z,984.188
2023-06-30T04:11:01.385Z,984.2531
2023-06-30T04:12:01.861Z,984.26
2023-06-30T04:13:01.253Z,984.1073
2023-06-30T04:14:03.361Z,984.121
2023-06-30T04:15:02.184Z,984.1501
2023-06-30T04:16:03.335Z,984.0626
2023-06-30T04:17:02.052Z,984.1346
2023-06-30T04:18:03.278Z,984.193
2023-06-30T04:19:03.592Z,984.1419
2023-06-30T04:20:01.459Z,983.996
2023-06-30T04:21:01.958Z,984.1775
2023-06-30T04:22:05.076Z,984.09
2023-06-30T04:23:01.818Z,984.0457
2023-06-30T04:25:03.390Z,984.2126
2023-06-30T04:26:03.859Z,984.0375
2023-06-30T04:27:01.662Z,984.0735
2023-06-30T04:28:03.750Z,984.0872
2023-06-30T04:29:01.616Z,984.0133
2023-06-30T04:30:03.690Z,984.1
2023-06-30T04:31:03.134Z,984.048
2023-06-30T04:32:01.927Z,984.0261
2023-06-30T04:33:03.033Z,984.0621
2023-06-30T04:34:01.783Z,984.0329
2023-06-30T04:36:03.439Z,984.0758
2023-06-30T04:37:03.787Z,983.9367
2023-06-30T04:38:03.333Z,984.0968
2023-06-30T04:39:02.040Z,984.147
2023-06-30T04:40:03.094Z,984.147
2023-06-30T04:41:03.605Z,984.0302
2023-06-30T04:42:01.340Z,984.0366
2023-06-30T04:43:03.477Z,984.0147
2023-06-30T04:44:03.923Z,984.0142
2023-06-30T04:45:03.452Z,983.9987
2023-06-30T04:46:02.239Z,983.9184
2023-06-30T04:47:03.312Z,984.0484
2023-06-30T04:48:02.089Z,984.0416
2023-06-30T04:49:01.549Z,984.0042
2023-06-30T04:50:03.591Z,984.0042
2023-06-30T04:51:01.437Z,984.0042
2023-06-30T04:52:01.900Z,984.0042
2023-06-30T04:53:02.988Z,983.7997
2023-06-30T04:54:01.811Z,984.0329
2023-06-30T04:55:02.272Z,983.755
2023-06-30T04:56:03.348Z,983.9147
2023-06-30T04:57:03.785Z,983.8563
2023-06-30T04:58:01.614Z,984.105
2023-06-30T04:59:02.052Z,983.8714
2023-06-30T05:00:01.529Z,983.9147
2023-06-30T05:01:03.671Z,983.776
2023-06-30T05:02:03.100Z,983.8047
2023-06-30T05:03:03.639Z,983.8408
2023-06-30T05:04:01.476Z,983.6865
2023-06-30T05:05:01.903Z,983.9489
2023-06-30T05:06:01.309Z,983.8394
2023-06-30T05:07:03.605Z,983.7946
2023-06-30T05:08:02.199Z,983.9475
2023-06-30T05:09:03.370Z,983.7791
2023-06-30T05:10:02.106Z,983.8823
2023-06-30T05:11:01.565Z,983.8307
2023-06-30T05:12:02.016Z,983.8804
2023-06-30T05:13:01.508Z,983.7845
2023-06-30T05:14:03.556Z,984.0671
2023-06-30T05:15:03.033Z,983.8626
2023-06-30T05:16:01.917Z,983.8689
2023-06-30T05:17:01.368Z,983.9055
2023-06-30T05:18:03.493Z,983.7749
2023-06-30T05:19:03.817Z,983.7744
2023-06-30T05:20:01.591Z,983.8333
2023-06-30T05:21:03.758Z,983.7881
2023-06-30T05:22:01.501Z,983.8876
2023-06-30T05:23:03.627Z,983.7775
2023-06-30T05:24:01.442Z,983.8643
2023-06-30T05:25:01.878Z,983.9077
2023-06-30T05:26:02.996Z,983.8643
2023-06-30T05:27:03.548Z,983.7332
2023-06-30T05:28:02.228Z,983.8935
2023-06-30T05:29:05.184Z,983.8643
2023-06-30T05:30:02.129Z,983.8643
2023-06-30T05:31:03.361Z,983.8643
2023-06-30T05:32:02.015Z,983.9004
2023-06-30T05:33:01.531Z,983.8181
2023-06-30T05:34:03.554Z,983.7358
2023-06-30T05:35:01.368Z,983.755
2023-06-30T05:36:01.838Z,983.8171
2023-06-30T05:37:01.284Z,983.806
2023-06-30T05:38:03.525Z,983.8393
2023-06-30T05:39:02.195Z,983.8599
2023-06-30T05:40:03.346Z,983.7414
2023-06-30T05:41:03.716Z,983.9294
2023-06-30T05:42:01.516Z,983.8415
2023-06-30T05:43:03.613Z,983.9879
2023-06-30T05:44:01.411Z,983.8415
2023-06-30T05:45:03.653Z,984.024
2023-06-30T05:46:02.958Z,983.9294
2023-06-30T05:47:03.589Z,983.8845
2023-06-30T05:48:02.245Z,984.0002
2023-06-30T05:49:03.337Z,983.9472
2023-06-30T05:50:03.717Z,984.0112
2023-06-30T05:51:03.248Z,984.0089
2023-06-30T05:52:01.971Z,983.9663
2023-06-30T05:53:01.463Z,983.9819
2023-06-30T05:54:01.911Z,983.9663
2023-06-30T05:55:02.992Z,984.132
2023-06-30T05:56:01.792Z,983.8509
2023-06-30T05:57:03.878Z,983.8756
2023-06-30T05:58:03.322Z,983.9246
2023-06-30T05:59:02.161Z,983.9584
2023-06-30T06:00:03.257Z,983.8773
2023-06-30T06:01:03.659Z,983.8984
2023-06-30T06:02:01.472Z,983.9483
2023-06-30T06:03:02.040Z,983.9053
2023-06-30T06:04:01.705Z,983.9864
2023-06-30T06:05:03.781Z,983.9566
2023-06-30T06:06:01.382Z,984.0555
2023-06-30T06:07:03.354Z,984.0385
2023-06-30T06:08:03.826Z,984.0367
2023-06-30T06:09:03.277Z,984.1527
2023-06-30T06:10:02.093Z,984.16
2023-06-30T06:11:01.553Z,984.2324
2023-06-30T06:12:03.812Z,983.9235
2023-06-30T06:13:03.107Z,983.7978
2023-06-30T06:14:01.855Z,984.0949
2023-06-30T06:15:02.929Z,983.9224
2023-06-30T06:16:03.377Z,983.9398
2023-06-30T06:17:03.893Z,983.9522
2023-06-30T06:18:03.289Z,983.9196
2023-06-30T06:19:02.101Z,983.9021
2023-06-30T06:20:01.534Z,983.8612
2023-06-30T06:21:02.016Z,983.8496
2023-06-30T06:22:03.106Z,983.7821
2023-06-30T06:23:03.671Z,983.8077
2023-06-30T06:24:01.318Z,983.8077
2023-06-30T06:25:01.806Z,983.8077
2023-06-30T06:26:03.882Z,983.969
2023-06-30T06:27:01.690Z,983.8431
2023-06-30T06:28:03.793Z,983.8311
2023-06-30T06:29:01.591Z,983.7625
2023-06-30T06:30:02.083Z,983.7092
2023-06-30T06:31:03.246Z,983.7284
2023-06-30T06:32:03.810Z,983.9307
2023-06-30T06:33:03.150Z,983.7821
2023-06-30T06:34:01.898Z,983.737
2023-06-30T06:35:01.347Z,983.7807
2023-06-30T06:36:03.418Z,983.8534
2023-06-30T06:37:02.194Z,983.8548
2023-06-30T06:38:03.302Z,983.7527
2023-06-30T06:39:03.829Z,983.7807
2023-06-30T06:40:01.592Z,983.8101
2023-06-30T06:41:02.067Z,983.8152
2023-06-30T06:42:03.152Z,983.7534
2023-06-30T06:43:03.688Z,983.7447
2023-06-30T06:44:03.069Z,983.8625
2023-06-30T06:45:03.475Z,983.7829
2023-06-30T06:46:02.958Z,983.8625
2023-06-30T06:47:03.399Z,983.9283
2023-06-30T06:48:03.816Z,983.8625
2023-06-30T06:49:01.671Z,983.949
2023-06-30T06:50:02.136Z,983.9025
2023-06-30T06:51:01.535Z,983.8951
2023-06-30T06:52:01.995Z,983.8587
2023-06-30T06:53:01.460Z,983.9388
2023-06-30T06:54:03.545Z,984.0479
2023-06-30T06:55:01.309Z,983.9471
2023-06-30T06:56:01.790Z,983.8348
2023-06-30T06:57:02.249Z,983.9388
2023-06-30T06:58:03.366Z,984.0115
2023-06-30T06:59:03.740Z,983.826
2023-06-30T07:00:03.843Z,983.8527
2023-06-30T07:01:03.861Z,983.7733
2023-06-30T07:02:03.126Z,983.7337
2023-06-30T07:03:03.599Z,983.8184
2023-06-30T07:04:01.322Z,983.6469
2023-06-30T07:05:03.488Z,983.7532
2023-06-30T07:06:02.241Z,983.8371
2023-06-30T07:07:01.748Z,983.7033
2023-06-30T07:08:02.111Z,983.6978
2023-06-30T07:09:01.600Z,983.7305
2023-06-30T07:10:02.081Z,983.7917
2023-06-30T07:11:03.143Z,983.8212
2023-06-30T07:12:03.534Z,983.7031
2023-06-30T07:13:01.471Z,983.7677
2023-06-30T07:14:01.831Z,983.7889
2023-06-30T07:15:01.312Z,983.8549
2023-06-30T07:16:01.792Z,983.7451
2023-06-30T07:17:02.232Z,983.8858
2023-06-30T07:18:03.360Z,983.8129
2023-06-30T07:19:03.951Z,983.74
2023-06-30T07:20:01.605Z,983.8212
2023-06-30T07:21:03.737Z,983.8212
2023-06-30T07:22:01.488Z,983.6722
2023-06-30T07:23:01.903Z,983.8982
2023-06-30T07:24:03.020Z,983.7972
2023-06-30T07:25:03.452Z,983.9366
2023-06-30T07:27:03.371Z,983.7182
2023-06-30T07:28:03.825Z,984.0237
2023-06-30T07:29:03.242Z,983.7185
2023-06-30T07:30:03.802Z,983.7886
2023-06-30T07:31:01.572Z,983.7779
2023-06-30T07:32:02.072Z,983.8666
2023-06-30T07:33:01.484Z,983.7173
2023-06-30T07:34:03.526Z,983.7743
2023-06-30T07:35:01.313Z,983.6765
2023-06-30T07:36:01.794Z,983.6834
2023-06-30T07:37:03.897Z,983.7337
2023-06-30T07:38:03.333Z,983.7082
2023-06-30T07:39:03.837Z,983.8163
2023-06-30T07:40:12.200Z,983.7886
2023-06-30T07:41:03.821Z,983.6684
2023-06-30T07:42:03.128Z,983.7626
2023-06-30T07:43:02.527Z,983.8462
2023-06-30T07:44:02.993Z,983.6303
2023-06-30T07:45:01.797Z,983.7527
2023-06-30T07:47:03.372Z,983.7356
2023-06-30T07:48:02.302Z,983.7129
2023-06-30T07:49:01.633Z,983.6384
2023-06-30T07:50:03.862Z,983.7596
2023-06-30T07:51:09.364Z,983.7231
2023-06-30T07:52:02.026Z,983.5876
2023-06-30T07:53:03.094Z,983.4905
2023-06-30T07:54:03.673Z,983.4659
2023-06-30T07:55:01.365Z,983.4905
2023-06-30T07:56:01.844Z,983.7231
2023-06-30T07:57:02.918Z,983.6427
2023-06-30T07:58:01.748Z,983.6792
2023-06-30T07:59:02.249Z,983.7157
2023-06-30T08:00:01.698Z,983.5642
2023-06-30T08:01:03.950Z,983.6826
2023-06-30T08:02:01.588Z,983.6654
2023-06-30T08:03:03.912Z,983.6427
2023-06-30T08:04:01.669Z,983.5229
2023-06-30T08:05:03.618Z,983.7093
2023-06-30T08:06:01.648Z,983.6969
2023-06-30T08:07:01.877Z,983.6682
2023-06-30T08:08:01.365Z,983.8166
2023-06-30T08:09:03.437Z,983.6391
2023-06-30T08:10:03.972Z,983.6215
2023-06-30T08:11:01.663Z,983.7962
2023-06-30T08:12:02.141Z,983.558
2023-06-30T08:13:01.627Z,983.6661
2023-06-30T08:14:03.797Z,983.6805
2023-06-30T08:15:01.446Z,983.5497
2023-06-30T08:16:03.610Z,983.6365
2023-06-30T08:17:02.930Z,983.6435
2023-06-30T08:18:10.128Z,983.7027
2023-06-30T08:19:01.332Z,983.6592
2023-06-30T08:20:01.893Z,983.668
2023-06-30T08:21:02.227Z,983.7231
2023-06-30T08:22:03.367Z,983.6501
2023-06-30T08:23:02.061Z,983.7596
2023-06-30T08:24:01.523Z,983.6986
2023-06-30T08:25:01.991Z,983.7864
2023-06-30T08:26:01.441Z,983.7322
2023-06-30T08:27:01.891Z,983.6678
2023-06-30T08:28:02.988Z,983.6733
2023-06-30T08:29:01.843Z,983.6038
2023-06-30T08:31:01.735Z,983.805
2023-06-30T08:32:02.170Z,983.6301
2023-06-30T08:33:03.338Z,983.6163
2023-06-30T08:34:02.100Z,983.6108
2023-06-30T08:35:03.175Z,983.6528
2023-06-30T08:36:02.033Z,983.719
2023-06-30T08:37:01.452Z,983.6251
2023-06-30T08:38:01.912Z,983.5033
2023-06-30T08:39:03.023Z,983.6777
2023-06-30T08:40:03.490Z,983.416
2023-06-30T08:41:04.277Z,983.5192
2023-06-30T08:42:03.361Z,983.7582
2023-06-30T08:43:02.158Z,983.644
2023-06-30T08:44:03.251Z,983.7347
2023-06-30T08:45:02.043Z,983.5761
2023-06-30T08:46:01.500Z,983.557
2023-06-30T08:47:03.695Z,983.7582
2023-06-30T08:48:03.120Z,983.5297
2023-06-30T08:49:01.850Z,983.5931
2023-06-30T08:50:02.925Z,983.5091
2023-06-30T08:51:01.725Z,983.6801
2023-06-30T08:52:03.838Z,983.605
2023-06-30T08:53:01.620Z,983.6911
2023-06-30T08:54:03.747Z,983.6208
2023-06-30T08:55:03.176Z,983.5125
2023-06-30T08:56:03.597Z,983.5912
2023-06-30T08:57:01.364Z,983.6318
2023-06-30T08:58:13.478Z,983.7555
2023-06-30T08:59:02.283Z,983.5998
2023-06-30T09:00:03.410Z,983.628
2023-06-30T09:01:03.901Z,983.5237
2023-06-30T09:02:03.292Z,983.628
2023-06-30T09:03:02.139Z,983.4653
2023-06-30T09:04:01.569Z,983.5148
2023-06-30T09:05:03.720Z,983.588
2023-06-30T09:06:03.051Z,983.4797
2023-06-30T09:07:03.573Z,983.4902
2023-06-30T09:08:01.285Z,983.4631
2023-06-30T09:09:01.776Z,983.3934
2023-06-30T09:10:02.218Z,983.6012
2023-06-30T09:11:03.319Z,983.5279
2023-06-30T09:12:03.760Z,983.425
2023-06-30T09:13:01.565Z,983.5521
2023-06-30T09:14:02.025Z,983.3543
2023-06-30T09:15:01.578Z,983.5624
2023-06-30T09:16:01.958Z,983.4279
2023-06-30T09:17:01.390Z,983.4928
2023-06-30T09:18:03.531Z,983.5576
2023-06-30T09:19:02.991Z,983.5334
2023-06-30T09:20:03.366Z,983.5013
2023-06-30T09:21:02.199Z,983.385
2023-06-30T09:22:50.918Z,983.381
2023-06-30T09:23:03.717Z,983.4279
2023-06-30T09:24:01.485Z,983.3034
2023-06-30T09:25:03.652Z,983.4018
2023-06-30T09:26:03.091Z,983.4176
2023-06-30T09:27:01.842Z,983.5224
2023-06-30T09:28:01.401Z,983.3532
2023-06-30T09:29:03.407Z,983.4155
2023-06-30T09:30:02.234Z,983.5011
2023-06-30T09:31:03.303Z,983.4368
2023-06-30T09:32:03.763Z,983.4974
2023-06-30T09:33:01.628Z,983.5077
2023-06-30T09:34:02.009Z,983.5701
2023-06-30T09:35:03.090Z,983.4273
2023-06-30T09:36:01.945Z,983.3507
2023-06-30T09:37:03.015Z,983.6247
2023-06-30T09:38:03.435Z,983.5093
2023-06-30T09:39:02.238Z,983.405
2023-06-30T09:40:03.375Z,983.2494
2023-06-30T09:41:02.165Z,983.2158
2023-06-30T09:42:03.210Z,983.3711
2023-06-30T09:43:02.072Z,983.2624
2023-06-30T09:44:03.153Z,983.3584
2023-06-30T09:45:01.990Z,983.439
2023-06-30T09:46:01.578Z,983.3288
2023-06-30T09:47:01.910Z,983.3338
2023-06-30T09:48:03.298Z,983.3624
2023-06-30T09:49:03.433Z,983.2357
2023-06-30T09:50:02.371Z,983.2446
2023-06-30T09:51:03.315Z,983.2253
2023-06-30T09:52:03.767Z,983.1238
2023-06-30T09:53:01.606Z,983.2025
2023-06-30T09:54:03.669Z,983.259
2023-06-30T09:55:03.116Z,983.1085
2023-06-30T09:56:03.542Z,983.2224
2023-06-30T09:57:01.352Z,983.1491
2023-06-30T09:58:01.794Z,983.2392
2023-06-30T09:59:03.902Z,983.2847
2023-06-30T10:00:03.340Z,983.105
2023-06-30T10:01:03.869Z,983.0931
2023-06-30T10:02:03.221Z,983.0897
2023-06-30T10:03:02.154Z,983.1387
2023-06-30T10:04:01.541Z,983.2542
2023-06-30T10:05:01.977Z,983.0897
2023-06-30T10:06:03.139Z,983.2086
2023-06-30T10:07:01.856Z,983.2993
2023-06-30T10:08:01.294Z,983.3082
2023-06-30T10:09:03.386Z,983.1907
2023-06-30T10:10:03.802Z,983.1863
2023-06-30T10:11:01.672Z,983.0981
2023-06-30T10:12:03.741Z,983.2625
2023-06-30T10:13:03.139Z,983.1139
2023-06-30T10:14:01.986Z,983.1892
2023-06-30T10:15:01.442Z,983.1318
2023-06-30T10:16:03.556Z,983.2382
2023-06-30T10:17:01.309Z,983.259
2023-06-30T10:18:03.416Z,983.1417
2023-06-30T10:19:02.212Z,983.0872
2023-06-30T10:20:04.539Z,983.2812
2023-06-30T10:21:02.129Z,983.1535
2023-06-30T10:22:03.198Z,983.1362
2023-06-30T10:23:03.660Z,983.3199
2023-06-30T10:24:03.083Z,983.2957
2023-06-30T10:25:03.557Z,982.9956
2023-06-30T10:26:01.368Z,983.1892
2023-06-30T10:27:03.432Z,983.0511
2023-06-30T10:28:03.904Z,982.9535
2023-06-30T10:29:03.338Z,983.1892
2023-06-30T10:30:02.147Z,983.1278
2023-06-30T10:31:03.272Z,983.0268
2023-06-30T10:32:02.041Z,983.0109
2023-06-30T10:33:01.905Z,983.055
2023-06-30T10:34:03.619Z,982.9896
2023-06-30T10:35:03.058Z,983.0426
2023-06-30T10:36:03.495Z,982.929
2023-06-30T10:37:02.950Z,982.924
2023-06-30T10:38:03.342Z,982.8834
2023-06-30T10:39:02.179Z,982.9484
2023-06-30T10:40:03.575Z,982.9132
2023-06-30T10:41:03.712Z,982.8097
2023-06-30T10:42:03.134Z,982.9757
2023-06-30T10:43:01.940Z,983.0406
2023-06-30T10:44:01.370Z,982.8344
2023-06-30T10:45:03.474Z,982.878
2023-06-30T10:46:04.122Z,982.8849
2023-06-30T10:47:03.452Z,982.7498
2023-06-30T10:48:02.191Z,982.6889
2023-06-30T10:49:03.261Z,982.8378
2023-06-30T10:50:02.071Z,982.6659
2023-06-30T10:51:01.551Z,982.6822
2023-06-30T10:52:04.190Z,982.694
2023-06-30T10:53:01.461Z,982.8753
2023-06-30T10:54:01.920Z,982.8197
2023-06-30T10:55:01.408Z,982.6211
2023-06-30T10:56:03.436Z,982.8932
2023-06-30T10:58:03.467Z,982.5994
2023-06-30T10:59:03.827Z,982.5711
2023-06-30T11:00:03.275Z,982.5975
2023-06-30T11:01:02.085Z,982.5297
2023-06-30T11:02:03.124Z,982.4701
2023-06-30T11:03:02.137Z,982.5143
2023-06-30T11:04:02.820Z,982.617
2023-06-30T11:05:03.536Z,982.7272
2023-06-30T11:06:01.320Z,982.3959
2023-06-30T11:07:03.409Z,982.4976
2023-06-30T11:08:03.848Z,982.3327
2023-06-30T11:09:01.648Z,982.3646
2023-06-30T11:10:07.204Z,982.4257
2023-06-30T11:11:01.554Z,982.5331
2023-06-30T11:12:03.655Z,982.5698
2023-06-30T11:13:01.434Z,982.4453
2023-06-30T11:14:01.878Z,982.4171
2023-06-30T11:15:01.387Z,982.5537
2023-06-30T11:16:01.821Z,982.6113
2023-06-30T11:17:02.947Z,982.3911
2023-06-30T11:18:02.010Z,982.4643
2023-06-30T11:19:03.892Z,982.472
2023-06-30T11:20:01.595Z,982.4504
2023-06-30T11:21:03.740Z,982.4417
2023-06-30T11:22:01.976Z,982.6566
2023-06-30T11:23:02.088Z,982.4245
2023-06-30T11:24:01.400Z,982.5576
2023-06-30T11:25:01.871Z,982.4525
2023-06-30T11:26:01.330Z,982.5079
2023-06-30T11:27:03.425Z,982.2996
2023-06-30T11:28:02.188Z,982.4194
2023-06-30T11:29:01.669Z,982.454
2023-06-30T11:30:02.124Z,982.4781
2023-06-30T11:31:01.675Z,982.3127
2023-06-30T11:32:02.030Z,982.3684
2023-06-30T11:33:01.558Z,982.4002
2023-06-30T11:34:03.272Z,982.3666
2023-06-30T11:35:01.441Z,982.1953
2023-06-30T11:36:03.503Z,982.1237
2023-06-30T11:37:02.959Z,982.2911
2023-06-30T11:38:01.963Z,982.2288
2023-06-30T11:39:02.246Z,982.4735
2023-06-30T11:40:04.047Z,982.3089
2023-06-30T11:41:03.800Z,982.3125
2023-06-30T11:42:01.605Z,982.2828
2023-06-30T11:43:03.661Z,982.3004
2023-06-30T11:44:01.514Z,982.4927
2023-06-30T11:45:03.561Z,982.4017
2023-06-30T11:46:03.323Z,982.4735
2023-06-30T11:47:01.918Z,982.5468
2023-06-30T11:48:01.304Z,982.3684
2023-06-30T11:49:03.369Z,982.5102
2023-06-30T11:50:02.171Z,982.4735
2023-06-30T11:51:03.282Z,982.4612
2023-06-30T11:52:03.756Z,982.6044
2023-06-30T11:53:01.573Z,982.5693